^^
Datos históricos de la estación: Murcia-Puente Tocinos
Diario Informe para Julio 31, 2021 Unidades:  Ambas    Ingés   Métrico
Diario Semanal Mensual Anual
  Máxima: Mínima: Promedio:
Temperatura: 95.2 °F /  35.1 °C 75.2 °F /  24 °C 85.5 °F /  29.7 °C
Punto de rocio: 73.2 °F /  22.9 °C 41 °F /  5 °C 62.8 °F /  17.1 °C
Humedad: 81% 19% 52%
Velocidad viento: 13mph /  20.9km/h - 6.5mph /  10.4km/h
Racha viento: 23.5mph /  37.8km/h - -
Viento- - SSE
Presión: 29.8 in /  1009.6 hPa 29.7 in /  1004.4 hPa -
Precipitación: 0 in /  0.0 mm    
 
 
Tabla de datos para Julio 31, 2021
Hora Temperatura Punto de rocio Presión Viento Velocidad viento Racha viento Humedad Intensidad lluvia(por hora) Nubes
00:04 80.4 °F /  26.9 °C 71.8 °F /  22.1 °C 29.8in /  1008.2hPa SO 4.7mph /  7.6km/h 10.2mph /  16.4km/h 75% 0in /  0.0mm
00:09 80.4 °F /  26.9 °C 71.8 °F /  22.1 °C 29.8in /  1008.2hPa SO 5.1mph /  8.2km/h 10mph /  16.1km/h 75% 0in /  0.0mm
00:14 80.4 °F /  26.9 °C 71.8 °F /  22.1 °C 29.8in /  1008.1hPa SO 5.4mph /  8.7km/h 7mph /  11.3km/h 75% 0in /  0.0mm
00:19 80.4 °F /  26.9 °C 71.8 °F /  22.1 °C 29.8in /  1008.1hPa SO 4.4mph /  7.1km/h 8.1mph /  13km/h 75% 0in /  0.0mm
00:24 80.4 °F /  26.9 °C 71.8 °F /  22.1 °C 29.8in /  1008.1hPa SO 3.6mph /  5.8km/h 9.2mph /  14.8km/h 75% 0in /  0.0mm
00:29 80.2 °F /  26.8 °C 71.8 °F /  22.1 °C 29.8in /  1008.1hPa SO 3.9mph /  6.3km/h 9mph /  14.5km/h 75% 0in /  0.0mm
00:34 80.2 °F /  26.8 °C 72 °F /  22.2 °C 29.8in /  1008.1hPa SO 4.3mph /  6.9km/h 10.4mph /  16.7km/h 75.8% 0in /  0.0mm
00:39 80.1 °F /  26.7 °C 72 °F /  22.2 °C 29.8in /  1008.3hPa SSO 5mph /  8.1km/h 10.7mph /  17.2km/h 76.3% 0in /  0.0mm
00:44 79.7 °F /  26.5 °C 71.8 °F /  22.1 °C 29.8in /  1008.3hPa SSO 5.4mph /  8.7km/h 11mph /  17.7km/h 77% 0in /  0.0mm
00:49 79.5 °F /  26.4 °C 72.1 °F /  22.3 °C 29.8in /  1008.3hPa SSO 5.9mph /  9.5km/h 10mph /  16.1km/h 78% 0in /  0.0mm
00:54 79.5 °F /  26.4 °C 72 °F /  22.2 °C 29.8in /  1008.3hPa SO 6.2mph /  10km/h 9mph /  14.5km/h 78% 0in /  0.0mm
00:59 79.3 °F /  26.3 °C 72 °F /  22.2 °C 29.8in /  1008.3hPa SSO 5.3mph /  8.5km/h 10.7mph /  17.2km/h 78% 0in /  0.0mm
01:04 79.3 °F /  26.3 °C 72 °F /  22.2 °C 29.8in /  1008.3hPa SSO 4.7mph /  7.6km/h 11mph /  17.7km/h 78% 0in /  0.0mm
01:09 79.3 °F /  26.3 °C 72 °F /  22.2 °C 29.8in /  1008.3hPa SSO 5.4mph /  8.7km/h 10.4mph /  16.7km/h 78.1% 0in /  0.0mm
01:14 79.2 °F /  26.2 °C 72.1 °F /  22.3 °C 29.8in /  1008.2hPa SO 5.9mph /  9.5km/h 10.4mph /  16.7km/h 79% 0in /  0.0mm
01:19 79.2 °F /  26.2 °C 72.1 °F /  22.3 °C 29.8in /  1008.2hPa SO 5.6mph /  9km/h 10mph /  16.1km/h 79% 0in /  0.0mm
01:24 79.2 °F /  26.2 °C 72.1 °F /  22.3 °C 29.8in /  1008.3hPa SSO 5.4mph /  8.7km/h 9.2mph /  14.8km/h 79% 0in /  0.0mm
01:29 79.2 °F /  26.2 °C 72.1 °F /  22.3 °C 29.8in /  1008.3hPa SO 5.3mph /  8.5km/h 10mph /  16.1km/h 79% 0in /  0.0mm
01:34 79 °F /  26.1 °C 72 °F /  22.2 °C 29.8in /  1008.3hPa SO 5.2mph /  8.4km/h 11.5mph /  18.5km/h 79% 0in /  0.0mm
01:39 78.8 °F /  26 °C 72 °F /  22.2 °C 29.8in /  1008.3hPa SSO 6mph /  9.6km/h 12mph /  19.3km/h 79.6% 0in /  0.0mm
01:44 78.6 °F /  25.9 °C 72 °F /  22.2 °C 29.8in /  1008.2hPa SSO 6.4mph /  10.3km/h 11mph /  17.7km/h 80% 0in /  0.0mm
01:49 78.4 °F /  25.8 °C 71.8 °F /  22.1 °C 29.8in /  1008.2hPa SSO 6.7mph /  10.8km/h 13.5mph /  21.7km/h 80% 0in /  0.0mm
01:54 78.4 °F /  25.8 °C 72 °F /  22.2 °C 29.8in /  1008.2hPa SSO 6.9mph /  11.1km/h 14mph /  22.5km/h 80.3% 0in /  0.0mm
01:59 78.4 °F /  25.8 °C 72.1 °F /  22.3 °C 29.8in /  1008.2hPa SSO 6.9mph /  11.1km/h 14mph /  22.5km/h 81% 0in /  0.0mm
02:04 78.4 °F /  25.8 °C 72 °F /  22.2 °C 29.8in /  1008.2hPa SSO 6.9mph /  11.1km/h 10.4mph /  16.7km/h 80.5% 0in /  0.0mm
02:09 78.4 °F /  25.8 °C 71.8 °F /  22.1 °C 29.8in /  1008.2hPa SSO 6.5mph /  10.4km/h 10mph /  16.1km/h 80% 0in /  0.0mm
02:14 78.4 °F /  25.8 °C 71.8 °F /  22.1 °C 29.8in /  1008.1hPa SO 6.2mph /  10km/h 9mph /  14.5km/h 80% 0in /  0.0mm
02:19 78.6 °F /  25.9 °C 71.8 °F /  22.1 °C 29.8in /  1008.1hPa SO 5.6mph /  9km/h 9.2mph /  14.8km/h 79.7% 0in /  0.0mm
02:24 79 °F /  26.1 °C 71.8 °F /  22.1 °C 29.8in /  1008.1hPa OSO 5.2mph /  8.4km/h 8mph /  12.9km/h 79% 0in /  0.0mm
02:29 79 °F /  26.1 °C 72 °F /  22.2 °C 29.8in /  1007.9hPa OSO 4.2mph /  6.7km/h 7mph /  11.3km/h 79% 0in /  0.0mm
02:34 79 °F /  26.1 °C 71.6 °F /  22 °C 29.8in /  1007.9hPa Oeste 3.6mph /  5.8km/h 6mph /  9.7km/h 78.3% 0in /  0.0mm
02:39 78.6 °F /  25.9 °C 71.6 °F /  22 °C 29.8in /  1007.9hPa OSO 3.9mph /  6.2km/h 6.9mph /  11.1km/h 79% 0in /  0.0mm
02:44 78.4 °F /  25.8 °C 71.8 °F /  22.1 °C 29.8in /  1007.8hPa SO 4mph /  6.5km/h 7mph /  11.3km/h 79.7% 0in /  0.0mm
02:49 78.4 °F /  25.8 °C 71.8 °F /  22.1 °C 29.8in /  1007.8hPa SO 3.7mph /  6km/h 6.9mph /  11.1km/h 80% 0in /  0.0mm
02:54 78.4 °F /  25.8 °C 71.8 °F /  22.1 °C 29.8in /  1007.8hPa SO 3.6mph /  5.8km/h 7mph /  11.3km/h 80% 0in /  0.0mm
02:59 78.4 °F /  25.8 °C 71.8 °F /  22.1 °C 29.8in /  1007.7hPa Sur 3.3mph /  5.3km/h 5.8mph /  9.3km/h 80% 0in /  0.0mm
03:04 78.3 °F /  25.7 °C 71.6 °F /  22 °C 29.8in /  1007.7hPa SSO 3.1mph /  5km/h 6mph /  9.7km/h 80% 0in /  0.0mm
03:09 78.3 °F /  25.7 °C 71.6 °F /  22 °C 29.8in /  1007.7hPa SSO 3.7mph /  5.9km/h 6mph /  9.7km/h 80% 0in /  0.0mm
03:14 78.1 °F /  25.6 °C 71.8 °F /  22.1 °C 29.8in /  1007.5hPa SO 4mph /  6.5km/h 6.2mph /  10km/h 81% 0in /  0.0mm
03:19 78.1 °F /  25.6 °C 71.8 °F /  22.1 °C 29.8in /  1007.5hPa SO 4mph /  6.5km/h 6.9mph /  11.1km/h 81% 0in /  0.0mm
03:24 78.1 °F /  25.6 °C 71.8 °F /  22.1 °C 29.8in /  1007.5hPa SO 4mph /  6.5km/h 7mph /  11.3km/h 81% 0in /  0.0mm
03:29 78.1 °F /  25.6 °C 71.8 °F /  22.1 °C 29.8in /  1007.5hPa SO 4.2mph /  6.8km/h 7mph /  11.3km/h 81% 0in /  0.0mm
03:34 78.1 °F /  25.6 °C 71.8 °F /  22.1 °C 29.8in /  1007.5hPa SSO 4.3mph /  6.9km/h 9.7mph /  15.6km/h 81% 0in /  0.0mm
03:39 78.1 °F /  25.6 °C 71.8 °F /  22.1 °C 29.8in /  1007.5hPa SSO 4.5mph /  7.3km/h 9.2mph /  14.8km/h 81% 0in /  0.0mm
03:44 77.9 °F /  25.5 °C 71.6 °F /  22 °C 29.8in /  1007.5hPa SO 4.7mph /  7.6km/h 9mph /  14.5km/h 81% 0in /  0.0mm
03:49 77.7 °F /  25.4 °C 71.4 °F /  21.9 °C 29.8in /  1007.5hPa SSO 4.4mph /  7.1km/h 7mph /  11.3km/h 81% 0in /  0.0mm
03:54 77.7 °F /  25.4 °C 71.4 °F /  21.9 °C 29.8in /  1007.6hPa SO 4.3mph /  6.9km/h 5.8mph /  9.3km/h 81% 0in /  0.0mm
03:59 77.7 °F /  25.4 °C 71.4 °F /  21.9 °C 29.8in /  1007.6hPa SO 3.5mph /  5.7km/h 6mph /  9.7km/h 81% 0in /  0.0mm
04:04 77.7 °F /  25.4 °C 71.4 °F /  21.9 °C 29.8in /  1007.6hPa SO 3.1mph /  5km/h 5.2mph /  8.4km/h 81% 0in /  0.0mm
04:09 77.5 °F /  25.3 °C 71.2 °F /  21.8 °C 29.8in /  1007.6hPa SO 3mph /  4.8km/h 5.8mph /  9.3km/h 80.9% 0in /  0.0mm
04:14 77.5 °F /  25.3 °C 71.1 °F /  21.7 °C 29.8in /  1007.6hPa SO 2.9mph /  4.7km/h 6mph /  9.7km/h 80.6% 0in /  0.0mm
04:19 77.5 °F /  25.3 °C 71.1 °F /  21.7 °C 29.8in /  1007.6hPa OSO 2.5mph /  4.1km/h 5mph /  8km/h 80.5% 0in /  0.0mm
04:24 77.5 °F /  25.3 °C 70.9 °F /  21.6 °C 29.8in /  1007.6hPa OSO 2.4mph /  3.9km/h 5mph /  8km/h 80% 0in /  0.0mm
04:29 77.4 °F /  25.2 °C 70.7 °F /  21.5 °C 29.8in /  1007.4hPa SO 2.1mph /  3.4km/h 4.6mph /  7.4km/h 80% 0in /  0.0mm
04:34 77.4 °F /  25.2 °C 71.1 °F /  21.7 °C 29.8in /  1007.4hPa SSO 2mph /  3.2km/h 5.2mph /  8.4km/h 80.8% 0in /  0.0mm
04:39 77.4 °F /  25.2 °C 70.9 °F /  21.6 °C 29.8in /  1007.4hPa SO 2.6mph /  4.2km/h 5.8mph /  9.3km/h 80.3% 0in /  0.0mm
04:44 77.5 °F /  25.3 °C 70.9 °F /  21.6 °C 29.8in /  1007.4hPa SO 3.1mph /  5km/h 6mph /  9.7km/h 80% 0in /  0.0mm
04:49 77.5 °F /  25.3 °C 70.9 °F /  21.6 °C 29.8in /  1007.4hPa SO 3.7mph /  5.9km/h 6mph /  9.7km/h 79.9% 0in /  0.0mm
04:54 77.5 °F /  25.3 °C 70.5 °F /  21.4 °C 29.8in /  1007.5hPa SO 4mph /  6.5km/h 5.8mph /  9.3km/h 79% 0in /  0.0mm
04:59 77.7 °F /  25.4 °C 70.7 °F /  21.5 °C 29.8in /  1007.5hPa SSO 3.7mph /  6km/h 4.7mph /  7.6km/h 79% 0in /  0.0mm
05:04 77.7 °F /  25.4 °C 70.5 °F /  21.4 °C 29.8in /  1007.5hPa Sur 3.6mph /  5.8km/h 5.8mph /  9.3km/h 78.6% 0in /  0.0mm
05:09 77.7 °F /  25.4 °C 70.3 °F /  21.3 °C 29.8in /  1007.5hPa SSO 3.6mph /  5.8km/h 6.2mph /  10km/h 78% 0in /  0.0mm
05:14 77.9 °F /  25.5 °C 70.2 °F /  21.2 °C 29.7in /  1007.3hPa SO 3.6mph /  5.8km/h 6.9mph /  11.1km/h 77.4% 0in /  0.0mm
05:19 77.9 °F /  25.5 °C 70.2 °F /  21.2 °C 29.7in /  1007.3hPa SO 4mph /  6.5km/h 6.9mph /  11.1km/h 77% 0in /  0.0mm
05:24 77.9 °F /  25.5 °C 70.2 °F /  21.2 °C 29.7in /  1007.3hPa SO 4.3mph /  6.9km/h 7mph /  11.3km/h 77% 0in /  0.0mm
05:29 77.7 °F /  25.4 °C 70 °F /  21.1 °C 29.7in /  1007.2hPa SO 3.9mph /  6.2km/h 6mph /  9.7km/h 77% 0in /  0.0mm
05:34 77.5 °F /  25.3 °C 69.8 °F /  21 °C 29.7in /  1007.2hPa SSO 3.6mph /  5.8km/h 6.2mph /  10km/h 77% 0in /  0.0mm
05:39 77.5 °F /  25.3 °C 69.8 °F /  21 °C 29.8in /  1007.4hPa SSE 3.6mph /  5.8km/h 6.2mph /  10km/h 77% 0in /  0.0mm
05:44 77.4 °F /  25.2 °C 69.6 °F /  20.9 °C 29.8in /  1007.4hPa SSE 3.6mph /  5.8km/h 6.2mph /  10km/h 77.2% 0in /  0.0mm
05:49 77.2 °F /  25.1 °C 69.8 °F /  21 °C 29.8in /  1007.4hPa Sur 4mph /  6.5km/h 6mph /  9.7km/h 78% 0in /  0.0mm
05:54 76.8 °F /  24.9 °C 69.4 °F /  20.8 °C 29.8in /  1007.5hPa SSE 4.3mph /  6.9km/h 7.6mph /  12.2km/h 78% 0in /  0.0mm
05:59 76.6 °F /  24.8 °C 69.3 °F /  20.7 °C 29.8in /  1007.5hPa SSE 4.8mph /  7.8km/h 8.5mph /  13.7km/h 78% 0in /  0.0mm
06:04 76.1 °F /  24.5 °C 69.1 °F /  20.6 °C 29.8in /  1007.5hPa SSE 5.2mph /  8.4km/h 9mph /  14.5km/h 78.9% 0in /  0.0mm
06:09 75.7 °F /  24.3 °C 68.9 °F /  20.5 °C 29.8in /  1007.6hPa Sur 5.6mph /  9km/h 9mph /  14.5km/h 79% 0in /  0.0mm
06:14 75.7 °F /  24.3 °C 68.7 °F /  20.4 °C 29.8in /  1007.6hPa SSE 5.9mph /  9.5km/h 7mph /  11.3km/h 79% 0in /  0.0mm
06:19 75.9 °F /  24.4 °C 68.5 °F /  20.3 °C 29.8in /  1007.6hPa SSE 5mph /  8km/h 7.4mph /  11.9km/h 78.2% 0in /  0.0mm
06:24 76.1 °F /  24.5 °C 68.4 °F /  20.2 °C 29.8in /  1007.7hPa SSE 4.3mph /  6.9km/h 7mph /  11.3km/h 77.1% 0in /  0.0mm
06:29 76.3 °F /  24.6 °C 68.4 °F /  20.2 °C 29.8in /  1007.7hPa SE 4.5mph /  7.3km/h 7mph /  11.3km/h 76.4% 0in /  0.0mm
06:34 76.3 °F /  24.6 °C 68.2 °F /  20.1 °C 29.8in /  1007.7hPa SE 4.7mph /  7.6km/h 6mph /  9.7km/h 76% 0in /  0.0mm
06:39 76.1 °F /  24.5 °C 68 °F /  20 °C 29.8in /  1007.9hPa SE 4.1mph /  6.6km/h 6.9mph /  11.1km/h 76% 0in /  0.0mm
06:44 75.7 °F /  24.3 °C 67.6 °F /  19.8 °C 29.8in /  1007.9hPa SSE 3.6mph /  5.8km/h 7mph /  11.3km/h 76% 0in /  0.0mm
06:49 75.6 °F /  24.2 °C 67.5 °F /  19.7 °C 29.8in /  1007.9hPa SSE 3.9mph /  6.2km/h 5.2mph /  8.4km/h 76% 0in /  0.0mm
06:54 75.4 °F /  24.1 °C 67.1 °F /  19.5 °C 29.8in /  1008.0hPa SSE 4mph /  6.5km/h 5mph /  8km/h 75.7% 0in /  0.0mm
06:59 75.4 °F /  24.1 °C 66.9 °F /  19.4 °C 29.8in /  1008.0hPa SSE 3.4mph /  5.5km/h 5.9mph /  9.5km/h 74.7% 0in /  0.0mm
07:04 75.6 °F /  24.2 °C 67.3 °F /  19.6 °C 29.8in /  1008.0hPa SE 3.1mph /  5km/h 6.9mph /  11.1km/h 75.5% 0in /  0.0mm
07:09 75.4 °F /  24.1 °C 67.3 °F /  19.6 °C 29.8in /  1008.3hPa SSE 3.7mph /  5.9km/h 7mph /  11.3km/h 76% 0in /  0.0mm
07:14 75.2 °F /  24 °C 67.1 °F /  19.5 °C 29.8in /  1008.3hPa Sur 4mph /  6.5km/h 6.2mph /  10km/h 75.9% 0in /  0.0mm
07:19 75.6 °F /  24.2 °C 66.7 °F /  19.3 °C 29.8in /  1008.3hPa Sur 4.2mph /  6.8km/h 6.2mph /  10km/h 74.1% 0in /  0.0mm
07:24 75.7 °F /  24.3 °C 66.4 °F /  19.1 °C 29.8in /  1008.5hPa Sur 4.3mph /  6.9km/h 6.2mph /  10km/h 72.4% 0in /  0.0mm
07:29 76.3 °F /  24.6 °C 64.9 °F /  18.3 °C 29.8in /  1008.5hPa SSO 4.3mph /  6.9km/h 6.9mph /  11.1km/h 68.4% 0in /  0.0mm
07:34 76.6 °F /  24.8 °C 64.6 °F /  18.1 °C 29.8in /  1008.5hPa SO 4.3mph /  6.9km/h 7mph /  11.3km/h 66.3% 0in /  0.0mm
07:39 77.2 °F /  25.1 °C 64.8 °F /  18.2 °C 29.8in /  1008.5hPa OSO 3mph /  4.9km/h 5mph /  8km/h 65.7% 0in /  0.0mm
07:44 77.4 °F /  25.2 °C 65.3 °F /  18.5 °C 29.8in /  1008.5hPa ONO 2.4mph /  3.9km/h 4.6mph /  7.4km/h 66.4% 0in /  0.0mm
07:49 77.4 °F /  25.2 °C 65.7 °F /  18.7 °C 29.8in /  1008.5hPa Oeste 2.4mph /  3.9km/h 5mph /  8km/h 67.1% 0in /  0.0mm
07:54 77.4 °F /  25.2 °C 66 °F /  18.9 °C 29.8in /  1008.6hPa Oeste 2.4mph /  3.9km/h 5.2mph /  8.4km/h 68% 0in /  0.0mm
07:59 77.4 °F /  25.2 °C 66.4 °F /  19.1 °C 29.8in /  1008.6hPa OSO 2.7mph /  4.4km/h 5mph /  8km/h 69% 0in /  0.0mm
08:04 77.2 °F /  25.1 °C 66.6 °F /  19.2 °C 29.8in /  1008.6hPa OSO 2.9mph /  4.6km/h 5mph /  8km/h 69.7% 0in /  0.0mm
08:09 77.2 °F /  25.1 °C 66.6 °F /  19.2 °C 29.8in /  1008.7hPa OSO 2.9mph /  4.7km/h 5mph /  8km/h 70% 0in /  0.0mm
08:14 77.4 °F /  25.2 °C 66.4 °F /  19.1 °C 29.8in /  1008.7hPa SO 2.9mph /  4.7km/h 5.2mph /  8.4km/h 69.1% 0in /  0.0mm
08:19 77.5 °F /  25.3 °C 66.6 °F /  19.2 °C 29.8in /  1008.7hPa SO 3mph /  4.9km/h 5mph /  8km/h 69% 0in /  0.0mm
08:24 77.5 °F /  25.3 °C 66.6 °F /  19.2 °C 29.8in /  1008.7hPa Oeste 3.1mph /  5km/h 6.2mph /  10km/h 69% 0in /  0.0mm
08:29 77.5 °F /  25.3 °C 66.6 °F /  19.2 °C 29.8in /  1008.6hPa Oeste 3.6mph /  5.8km/h 6.2mph /  10km/h 68.8% 0in /  0.0mm
08:34 77.5 °F /  25.3 °C 65.5 °F /  18.6 °C 29.8in /  1008.6hPa Oeste 4mph /  6.5km/h 6mph /  9.7km/h 66.3% 0in /  0.0mm
08:39 78.1 °F /  25.6 °C 64.6 °F /  18.1 °C 29.8in /  1008.9hPa NNO 4mph /  6.5km/h 9.7mph /  15.6km/h 63.5% 0in /  0.0mm
08:44 78.4 °F /  25.8 °C 64.9 °F /  18.3 °C 29.8in /  1008.9hPa Este 4mph /  6.5km/h 10mph /  16.1km/h 63.2% 0in /  0.0mm
08:49 78.4 °F /  25.8 °C 64.8 °F /  18.2 °C 29.8in /  1008.9hPa Este 4.7mph /  7.6km/h 8mph /  12.9km/h 62.9% 0in /  0.0mm
08:54 78.6 °F /  25.9 °C 63.9 °F /  17.7 °C 29.8in /  1009.2hPa ENE 5.2mph /  8.4km/h 6mph /  9.7km/h 60.7% 0in /  0.0mm
08:59 79.2 °F /  26.2 °C 63.1 °F /  17.3 °C 29.8in /  1009.2hPa NE 4.1mph /  6.6km/h 6mph /  9.7km/h 58.1% 0in /  0.0mm
09:04 79.7 °F /  26.5 °C 62.2 °F /  16.8 °C 29.8in /  1009.2hPa ENE 3.6mph /  5.8km/h 6.2mph /  10km/h 55.4% 0in /  0.0mm
09:09 80.1 °F /  26.7 °C 61.7 °F /  16.5 °C 29.8in /  1009.3hPa ENE 3.3mph /  5.3km/h 6mph /  9.7km/h 53.8% 0in /  0.0mm
09:14 80.2 °F /  26.8 °C 61.9 °F /  16.6 °C 29.8in /  1009.3hPa ENE 3.1mph /  5km/h 6mph /  9.7km/h 53.4% 0in /  0.0mm
09:19 80.6 °F /  27 °C 61.3 °F /  16.3 °C 29.8in /  1009.3hPa ENE 3.4mph /  5.5km/h 6mph /  9.7km/h 51.7% 0in /  0.0mm
09:24 81 °F /  27.2 °C 61 °F /  16.1 °C 29.8in /  1009.4hPa NE 3.6mph /  5.8km/h 6mph /  9.7km/h 50.7% 0in /  0.0mm
09:29 81.5 °F /  27.5 °C 61.3 °F /  16.3 °C 29.8in /  1009.4hPa NNE 3.1mph /  5km/h 5mph /  8km/h 50.5% 0in /  0.0mm
09:34 81.9 °F /  27.7 °C 61.3 °F /  16.3 °C 29.8in /  1009.4hPa NNE 2.9mph /  4.7km/h 5mph /  8km/h 49.7% 0in /  0.0mm
09:39 82.4 °F /  28 °C 61.3 °F /  16.3 °C 29.8in /  1009.6hPa NE 2.6mph /  4.2km/h 5mph /  8km/h 49% 0in /  0.0mm
09:44 82.9 °F /  28.3 °C 60.8 °F /  16 °C 29.8in /  1009.6hPa ENE 2.4mph /  3.9km/h 5mph /  8km/h 47.1% 0in /  0.0mm
09:49 83.3 °F /  28.5 °C 59.4 °F /  15.2 °C 29.8in /  1009.6hPa SSO 2.1mph /  3.3km/h 4mph /  6.4km/h 44.5% 0in /  0.0mm
09:54 83.8 °F /  28.8 °C 60.4 °F /  15.8 °C 29.8in /  1009.6hPa OSO 1.8mph /  2.9km/h 5.2mph /  8.4km/h 45.4% 0in /  0.0mm
09:59 84 °F /  28.9 °C 61.3 °F /  16.3 °C 29.8in /  1009.3hPa North 2.2mph /  3.5km/h 6.9mph /  11.1km/h 46.6% 0in /  0.0mm
10:04 83.8 °F /  28.8 °C 62.1 °F /  16.7 °C 29.8in /  1009.3hPa NNE 2.4mph /  3.9km/h 7mph /  11.3km/h 47.9% 0in /  0.0mm
10:09 83.7 °F /  28.7 °C 62.8 °F /  17.1 °C 29.8in /  1009.3hPa NE 3.2mph /  5.1km/h 7mph /  11.3km/h 49.6% 0in /  0.0mm
10:14 83.7 °F /  28.7 °C 63 °F /  17.2 °C 29.8in /  1009.2hPa NNE 3.6mph /  5.8km/h 8.1mph /  13km/h 50% 0in /  0.0mm
10:19 83.5 °F /  28.6 °C 63.3 °F /  17.4 °C 29.8in /  1009.2hPa NE 4.5mph /  7.3km/h 8mph /  12.9km/h 50.9% 0in /  0.0mm
10:24 83.7 °F /  28.7 °C 66.2 °F /  19 °C 29.8in /  1009.3hPa NNE 5.2mph /  8.4km/h 9.7mph /  15.6km/h 56.2% 0in /  0.0mm
10:29 83.7 °F /  28.7 °C 69.3 °F /  20.7 °C 29.8in /  1009.3hPa NNE 5.2mph /  8.4km/h 10mph /  16.1km/h 62.2% 0in /  0.0mm
10:34 83.3 °F /  28.5 °C 70.2 °F /  21.2 °C 29.8in /  1009.3hPa NNE 5.2mph /  8.4km/h 11.5mph /  18.5km/h 64.7% 0in /  0.0mm
10:39 83.3 °F /  28.5 °C 71.2 °F /  21.8 °C 29.8in /  1009.3hPa NNE 5.3mph /  8.6km/h 12mph /  19.3km/h 67.3% 0in /  0.0mm
10:44 83.1 °F /  28.4 °C 71.1 °F /  21.7 °C 29.8in /  1009.3hPa NNE 5.4mph /  8.7km/h 11.2mph /  18km/h 67.2% 0in /  0.0mm
10:49 83.1 °F /  28.4 °C 72.5 °F /  22.5 °C 29.8in /  1009.3hPa NNE 6mph /  9.7km/h 12mph /  19.3km/h 70.4% 0in /  0.0mm
10:54 82.9 °F /  28.3 °C 73 °F /  22.8 °C 29.8in /  1009.3hPa North 6.4mph /  10.3km/h 13mph /  20.9km/h 72.1% 0in /  0.0mm
10:59 82.8 °F /  28.2 °C 73.2 °F /  22.9 °C 29.8in /  1009.1hPa NNE 7.1mph /  11.5km/h 13.8mph /  22.2km/h 73% 0in /  0.0mm
11:04 83.1 °F /  28.4 °C 73 °F /  22.8 °C 29.8in /  1009.1hPa NNE 7.6mph /  12.2km/h 14mph /  22.5km/h 72% 0in /  0.0mm
11:09 83.5 °F /  28.6 °C 72.7 °F /  22.6 °C 29.8in /  1009.1hPa NE 7.1mph /  11.5km/h 13mph /  20.9km/h 70% 0in /  0.0mm
11:14 84.2 °F /  29 °C 72.7 °F /  22.6 °C 29.8in /  1009.0hPa NNE 6.9mph /  11.1km/h 14mph /  22.5km/h 68.6% 0in /  0.0mm
11:19 84.4 °F /  29.1 °C 71.6 °F /  22 °C 29.8in /  1009.0hPa NNE 7.2mph /  11.6km/h 15mph /  24.1km/h 65.6% 0in /  0.0mm
11:24 84.6 °F /  29.2 °C 71.1 °F /  21.7 °C 29.8in /  1009.0hPa NNE 7.4mph /  11.9km/h 15mph /  24.1km/h 64.4% 0in /  0.0mm
11:29 84.7 °F /  29.3 °C 70.5 °F /  21.4 °C 29.8in /  1008.9hPa NNE 8mph /  12.9km/h 14mph /  22.5km/h 62.3% 0in /  0.0mm
11:34 85.1 °F /  29.5 °C 70.5 °F /  21.4 °C 29.8in /  1008.9hPa NNE 8.5mph /  13.7km/h 13mph /  20.9km/h 61.8% 0in /  0.0mm
11:39 85.5 °F /  29.7 °C 69.6 °F /  20.9 °C 29.8in /  1008.9hPa NNE 8mph /  12.8km/h 13mph /  20.9km/h 59.6% 0in /  0.0mm
11:44 85.5 °F /  29.7 °C 69.6 °F /  20.9 °C 29.8in /  1008.8hPa NNE 7.6mph /  12.2km/h 15mph /  24.1km/h 59.2% 0in /  0.0mm
11:49 85.6 °F /  29.8 °C 69.3 °F /  20.7 °C 29.8in /  1008.8hPa NNE 7.6mph /  12.2km/h 15mph /  24.1km/h 58% 0in /  0.0mm
11:54 86 °F /  30 °C 68.7 °F /  20.4 °C 29.8in /  1008.8hPa NNE 7.6mph /  12.2km/h 13mph /  20.9km/h 56.3% 0in /  0.0mm
11:59 86.4 °F /  30.2 °C 68.5 °F /  20.3 °C 29.8in /  1008.7hPa NNE 7.6mph /  12.2km/h 11.8mph /  19km/h 55.7% 0in /  0.0mm
12:04 86.5 °F /  30.3 °C 68.5 °F /  20.3 °C 29.8in /  1008.7hPa NNE 7.6mph /  12.2km/h 15mph /  24.1km/h 55.3% 0in /  0.0mm
12:09 86.5 °F /  30.3 °C 68.2 °F /  20.1 °C 29.8in /  1008.7hPa NNE 8.5mph /  13.7km/h 15mph /  24.1km/h 54.7% 0in /  0.0mm
12:14 86.9 °F /  30.5 °C 67.6 °F /  19.8 °C 29.8in /  1008.4hPa NNE 9.2mph /  14.8km/h 15mph /  24.1km/h 52.9% 0in /  0.0mm
12:19 87.3 °F /  30.7 °C 67.8 °F /  19.9 °C 29.8in /  1008.4hPa North 7.8mph /  12.5km/h 14mph /  22.5km/h 52.5% 0in /  0.0mm
12:24 87.8 °F /  31 °C 67.3 °F /  19.6 °C 29.8in /  1008.4hPa NE 6.9mph /  11.1km/h 14mph /  22.5km/h 50.8% 0in /  0.0mm
12:29 88 °F /  31.1 °C 65.7 °F /  18.7 °C 29.8in /  1008.2hPa NE 7.2mph /  11.6km/h 13mph /  20.9km/h 47.8% 0in /  0.0mm
12:34 88 °F /  31.1 °C 65.8 °F /  18.8 °C 29.8in /  1008.2hPa NNE 7.4mph /  11.9km/h 13mph /  20.9km/h 48% 0in /  0.0mm
12:39 88.3 °F /  31.3 °C 65.8 °F /  18.8 °C 29.8in /  1008.2hPa NNE 7.1mph /  11.4km/h 11mph /  17.7km/h 47.7% 0in /  0.0mm
12:44 88.7 °F /  31.5 °C 64.6 °F /  18.1 °C 29.8in /  1007.9hPa NNE 6.9mph /  11.1km/h 13.7mph /  22km/h 44.9% 0in /  0.0mm
12:49 88.9 °F /  31.6 °C 64.2 °F /  17.9 °C 29.8in /  1007.9hPa NNE 6.9mph /  11.1km/h 14mph /  22.5km/h 44.2% 0in /  0.0mm
12:54 89.1 °F /  31.7 °C 64 °F /  17.8 °C 29.8in /  1007.9hPa NNE 6.9mph /  11.1km/h 15mph /  24.1km/h 43.4% 0in /  0.0mm
12:59 89.6 °F /  32 °C 64.6 °F /  18.1 °C 29.8in /  1007.7hPa NE 6.6mph /  10.6km/h 15mph /  24.1km/h 43.7% 0in /  0.0mm
13:04 89.4 °F /  31.9 °C 64.9 °F /  18.3 °C 29.8in /  1007.7hPa NE 6.4mph /  10.3km/h 15mph /  24.1km/h 44.4% 0in /  0.0mm
13:09 89.6 °F /  32 °C 65.1 °F /  18.4 °C 29.8in /  1007.7hPa NNE 7.8mph /  12.5km/h 15mph /  24.1km/h 44.5% 0in /  0.0mm
13:14 90 °F /  32.2 °C 66.4 °F /  19.1 °C 29.8in /  1007.5hPa NE 8.7mph /  14km/h 17.8mph /  28.6km/h 46% 0in /  0.0mm
13:19 89.4 °F /  31.9 °C 66.2 °F /  19 °C 29.8in /  1007.5hPa NNE 8.7mph /  14km/h 18.5mph /  29.8km/h 46.6% 0in /  0.0mm
13:24 89.2 °F /  31.8 °C 66.9 °F /  19.4 °C 29.8in /  1007.5hPa NNE 8.7mph /  14km/h 19mph /  30.6km/h 47.7% 0in /  0.0mm
13:29 89.8 °F /  32.1 °C 67.5 °F /  19.7 °C 29.7in /  1007.3hPa NE 9.3mph /  14.9km/h 17.5mph /  28.2km/h 48% 0in /  0.0mm
13:34 90 °F /  32.2 °C 67.6 °F /  19.8 °C 29.7in /  1007.3hPa NNE 9.7mph /  15.6km/h 17mph /  27.4km/h 48.1% 0in /  0.0mm
13:39 90.1 °F /  32.3 °C 68.2 °F /  20.1 °C 29.7in /  1007.3hPa NE 9.9mph /  15.9km/h 16.3mph /  26.2km/h 48.7% 0in /  0.0mm
13:44 90.1 °F /  32.3 °C 68.5 °F /  20.3 °C 29.7in /  1007.0hPa NNE 10mph /  16.1km/h 19.6mph /  31.5km/h 49.1% 0in /  0.0mm
13:49 90.1 °F /  32.3 °C 68.5 °F /  20.3 °C 29.7in /  1007.0hPa NNE 10.9mph /  17.6km/h 20mph /  32.2km/h 49.3% 0in /  0.0mm
13:54 90.3 °F /  32.4 °C 68.7 °F /  20.4 °C 29.7in /  1007.0hPa NNE 11.4mph /  18.4km/h 19mph /  30.6km/h 49.3% 0in /  0.0mm
13:59 90.3 °F /  32.4 °C 69.1 °F /  20.6 °C 29.7in /  1006.7hPa NNE 10.9mph /  17.6km/h 20.7mph /  33.3km/h 49.9% 0in /  0.0mm
14:04 90.3 °F /  32.4 °C 69.3 °F /  20.7 °C 29.7in /  1006.7hPa NNE 10.7mph /  17.2km/h 21mph /  33.8km/h 50% 0in /  0.0mm
14:09 90.3 °F /  32.4 °C 69.3 °F /  20.7 °C 29.7in /  1006.7hPa NNE 12.1mph /  19.5km/h 21mph /  33.8km/h 50% 0in /  0.0mm
14:14 90.3 °F /  32.4 °C 69.6 °F /  20.9 °C 29.7in /  1006.7hPa NNE 13mph /  20.9km/h 21mph /  33.8km/h 50.8% 0in /  0.0mm
14:19 90.5 °F /  32.5 °C 69.8 °F /  21 °C 29.7in /  1006.7hPa NE 12.6mph /  20.3km/h 20.8mph /  33.5km/h 51% 0in /  0.0mm
14:24 90 °F /  32.2 °C 69.4 °F /  20.8 °C 29.7in /  1006.7hPa NNE 12.3mph /  19.8km/h 21mph /  33.8km/h 51.1% 0in /  0.0mm
14:29 90.1 °F /  32.3 °C 69.8 °F /  21 °C 29.7in /  1006.6hPa NE 12.3mph /  19.8km/h 20mph /  32.2km/h 51.3% 0in /  0.0mm
14:34 90.9 °F /  32.7 °C 69.8 °F /  21 °C 29.7in /  1006.6hPa NE 12.3mph /  19.8km/h 19.6mph /  31.5km/h 50.1% 0in /  0.0mm
14:39 91 °F /  32.8 °C 69.3 °F /  20.7 °C 29.7in /  1006.6hPa NE 10.6mph /  17km/h 20mph /  32.2km/h 48.9% 0in /  0.0mm
14:44 91.6 °F /  33.1 °C 66 °F /  18.9 °C 29.7in /  1006.3hPa Este 9.2mph /  14.8km/h 20mph /  32.2km/h 43.2% 0in /  0.0mm
14:49 91.9 °F /  33.3 °C 65.1 °F /  18.4 °C 29.7in /  1006.3hPa Este 8.5mph /  13.7km/h 15mph /  24.1km/h 41.4% 0in /  0.0mm
14:54 91.9 °F /  33.3 °C 65.7 °F /  18.7 °C 29.7in /  1006.3hPa ESE 8.1mph /  13km/h 16.8mph /  27km/h 42.3% 0in /  0.0mm
14:59 92.3 °F /  33.5 °C 66.4 °F /  19.1 °C 29.7in /  1006.3hPa SE 6.7mph /  10.8km/h 17.3mph /  27.8km/h 42.7% 0in /  0.0mm
15:04 92.5 °F /  33.6 °C 66.2 °F /  19 °C 29.7in /  1006.3hPa ESE 5.9mph /  9.5km/h 15.2mph /  24.5km/h 42.2% 0in /  0.0mm
15:09 92.3 °F /  33.5 °C 65.3 °F /  18.5 °C 29.7in /  1006.3hPa ESE 7.6mph /  12.3km/h 15.6mph /  25.1km/h 41.2% 0in /  0.0mm
15:14 92.1 °F /  33.4 °C 65.1 °F /  18.4 °C 29.7in /  1006.2hPa SE 8.5mph /  13.7km/h 16mph /  25.7km/h 41% 0in /  0.0mm
15:19 91.9 °F /  33.3 °C 65.1 °F /  18.4 °C 29.7in /  1006.2hPa SE 8mph /  12.8km/h 16.1mph /  25.9km/h 41.2% 0in /  0.0mm
15:24 91.8 °F /  33.2 °C 64.9 °F /  18.3 °C 29.7in /  1006.2hPa ESE 7.6mph /  12.2km/h 16mph /  25.7km/h 41.2% 0in /  0.0mm
15:29 91.9 °F /  33.3 °C 65.5 °F /  18.6 °C 29.7in /  1006.1hPa ESE 8.2mph /  13.2km/h 17.3mph /  27.8km/h 42% 0in /  0.0mm
15:34 91.9 °F /  33.3 °C 65.7 °F /  18.7 °C 29.7in /  1006.1hPa ESE 8.5mph /  13.7km/h 17mph /  27.4km/h 42.1% 0in /  0.0mm
15:39 91.9 °F /  33.3 °C 65.7 °F /  18.7 °C 29.7in /  1006.1hPa SE 8.3mph /  13.3km/h 17.3mph /  27.8km/h 42.1% 0in /  0.0mm
15:44 91.9 °F /  33.3 °C 66.4 °F /  19.1 °C 29.7in /  1006.0hPa ESE 8.1mph /  13km/h 17.3mph /  27.8km/h 43% 0in /  0.0mm
15:49 92.1 °F /  33.4 °C 66.2 °F /  19 °C 29.7in /  1006.0hPa ESE 8.4mph /  13.5km/h 16.1mph /  25.9km/h 42.7% 0in /  0.0mm
15:54 92.5 °F /  33.6 °C 66.2 °F /  19 °C 29.7in /  1006.0hPa SE 8.5mph /  13.7km/h 16.1mph /  25.9km/h 42.3% 0in /  0.0mm
15:59 92.7 °F /  33.7 °C 66 °F /  18.9 °C 29.7in /  1005.8hPa ESE 9.5mph /  15.3km/h 17.3mph /  27.8km/h 41.8% 0in /  0.0mm
16:04 92.7 °F /  33.7 °C 65.5 °F /  18.6 °C 29.7in /  1005.8hPa ESE 10mph /  16.1km/h 18.5mph /  29.8km/h 41% 0in /  0.0mm
16:09 92.8 °F /  33.8 °C 65.5 °F /  18.6 °C 29.7in /  1005.8hPa ESE 9.5mph /  15.3km/h 19mph /  30.6km/h 40.8% 0in /  0.0mm
16:14 93 °F /  33.9 °C 61.5 °F /  16.4 °C 29.7in /  1005.5hPa SE 9.2mph /  14.8km/h 18.4mph /  29.6km/h 35.4% 0in /  0.0mm
16:19 93.6 °F /  34.2 °C 61.7 °F /  16.5 °C 29.7in /  1005.5hPa ESE 10.1mph /  16.3km/h 18mph /  29km/h 34.9% 0in /  0.0mm
16:24 93.9 °F /  34.4 °C 60.1 °F /  15.6 °C 29.7in /  1005.5hPa SE 10.7mph /  17.2km/h 15mph /  24.1km/h 32.5% 0in /  0.0mm
16:29 94.5 °F /  34.7 °C 58.5 °F /  14.7 °C 29.7in /  1005.3hPa SE 8.7mph /  14km/h 13.7mph /  22km/h 30.4% 0in /  0.0mm
16:34 94.8 °F /  34.9 °C 57.2 °F /  14 °C 29.7in /  1005.3hPa SE 7.6mph /  12.2km/h 17.3mph /  27.8km/h 28.5% 0in /  0.0mm
16:39 94.8 °F /  34.9 °C 56.3 °F /  13.5 °C 29.7in /  1005.3hPa SE 8.6mph /  13.9km/h 18.1mph /  29.1km/h 27.6% 0in /  0.0mm
16:44 94.8 °F /  34.9 °C 56.5 °F /  13.6 °C 29.7in /  1004.9hPa ESE 9.2mph /  14.8km/h 18mph /  29km/h 27.9% 0in /  0.0mm
16:49 94.6 °F /  34.8 °C 56.3 °F /  13.5 °C 29.7in /  1004.9hPa ESE 10.2mph /  16.4km/h 20.7mph /  33.3km/h 27.8% 0in /  0.0mm
16:54 94.5 °F /  34.7 °C 56.5 °F /  13.6 °C 29.7in /  1004.9hPa ESE 10.7mph /  17.2km/h 21mph /  33.8km/h 28% 0in /  0.0mm
16:59 94.6 °F /  34.8 °C 56.3 °F /  13.5 °C 29.7in /  1004.8hPa SE 10.2mph /  16.4km/h 18.4mph /  29.6km/h 27.7% 0in /  0.0mm
17:04 95 °F /  35 °C 56.1 °F /  13.4 °C 29.7in /  1004.8hPa ESE 10mph /  16.1km/h 18mph /  29km/h 27.5% 0in /  0.0mm
17:09 94.8 °F /  34.9 °C 55.9 °F /  13.3 °C 29.7in /  1004.8hPa ESE 9.8mph /  15.8km/h 18.4mph /  29.6km/h 27.4% 0in /  0.0mm
17:14 94.6 °F /  34.8 °C 55.6 °F /  13.1 °C 29.7in /  1004.8hPa ESE 9.7mph /  15.6km/h 18.5mph /  29.8km/h 27% 0in /  0.0mm
17:19 94.8 °F /  34.9 °C 55 °F /  12.8 °C 29.7in /  1004.8hPa SE 10.5mph /  16.9km/h 19mph /  30.6km/h 26.4% 0in /  0.0mm
17:24 95.2 °F /  35.1 °C 55 °F /  12.8 °C 29.7in /  1004.8hPa ESE 11.2mph /  18km/h 17mph /  27.4km/h 26.1% 0in /  0.0mm
17:29 95.2 °F /  35.1 °C 55 °F /  12.8 °C 29.7in /  1004.7hPa ESE 9.4mph /  15.1km/h 18.4mph /  29.6km/h 26% 0in /  0.0mm
17:34 94.8 °F /  34.9 °C 54.5 °F /  12.5 °C 29.7in /  1004.7hPa Este 8.1mph /  13km/h 18mph /  29km/h 26% 0in /  0.0mm
17:39 94.6 °F /  34.8 °C 54.7 °F /  12.6 °C 29.7in /  1004.7hPa ESE 9.2mph /  14.8km/h 18mph /  29km/h 26.2% 0in /  0.0mm
17:44 94.6 °F /  34.8 °C 54.7 °F /  12.6 °C 29.7in /  1004.6hPa ESE 10mph /  16.1km/h 15mph /  24.1km/h 26.4% 0in /  0.0mm
17:49 94.5 °F /  34.7 °C 54.3 °F /  12.4 °C 29.7in /  1004.6hPa ESE 9.6mph /  15.4km/h 16.1mph /  25.9km/h 26% 0in /  0.0mm
17:54 94.3 °F /  34.6 °C 54 °F /  12.2 °C 29.7in /  1004.6hPa Este 9.2mph /  14.8km/h 16.1mph /  25.9km/h 25.8% 0in /  0.0mm
17:59 94.3 °F /  34.6 °C 53.6 °F /  12 °C 29.7in /  1004.5hPa ESE 9.2mph /  14.8km/h 14mph /  22.5km/h 25.6% 0in /  0.0mm
18:04 94.5 °F /  34.7 °C 53.4 °F /  11.9 °C 29.7in /  1004.5hPa Este 9.2mph /  14.8km/h 14mph /  22.5km/h 25.2% 0in /  0.0mm
18:09 94.5 °F /  34.7 °C 53.8 °F /  12.1 °C 29.7in /  1004.5hPa Este 9.2mph /  14.8km/h 14mph /  22.5km/h 25.5% 0in /  0.0mm
18:14 94.5 °F /  34.7 °C 54.3 °F /  12.4 °C 29.7in /  1004.4hPa ESE 9.2mph /  14.8km/h 14mph /  22.5km/h 26% 0in /  0.0mm
18:19 94.5 °F /  34.7 °C 54.3 °F /  12.4 °C 29.7in /  1004.4hPa ESE 8.5mph /  13.7km/h 13mph /  20.9km/h 26% 0in /  0.0mm
18:24 94.5 °F /  34.7 °C 54.3 °F /  12.4 °C 29.7in /  1004.4hPa Este 8.1mph /  13km/h 13mph /  20.9km/h 26% 0in /  0.0mm
18:29 94.5 °F /  34.7 °C 54.5 °F /  12.5 °C 29.7in /  1004.4hPa ESE 7.3mph /  11.8km/h 13mph /  20.9km/h 26.1% 0in /  0.0mm
18:34 94.6 °F /  34.8 °C 54.7 °F /  12.6 °C 29.7in /  1004.4hPa ESE 6.9mph /  11.1km/h 11.8mph /  19km/h 26.2% 0in /  0.0mm
18:39 94.6 °F /  34.8 °C 55.9 °F /  13.3 °C 29.7in /  1004.5hPa ESE 6.5mph /  10.5km/h 12mph /  19.3km/h 27.6% 0in /  0.0mm
18:44 94.5 °F /  34.7 °C 55.9 °F /  13.3 °C 29.7in /  1004.5hPa ESE 6.2mph /  10km/h 10.4mph /  16.7km/h 27.6% 0in /  0.0mm
18:49 94.6 °F /  34.8 °C 56.5 °F /  13.6 °C 29.7in /  1004.5hPa ESE 6mph /  9.7km/h 10.7mph /  17.2km/h 28.1% 0in /  0.0mm
18:54 94.5 °F /  34.7 °C 57 °F /  13.9 °C 29.7in /  1004.7hPa ESE 5.9mph /  9.5km/h 11mph /  17.7km/h 28.8% 0in /  0.0mm
18:59 94.5 °F /  34.7 °C 55.9 °F /  13.3 °C 29.7in /  1004.7hPa Este 6.1mph /  9.8km/h 9.2mph /  14.8km/h 27.7% 0in /  0.0mm
19:04 94.6 °F /  34.8 °C 55.9 °F /  13.3 °C 29.7in /  1004.7hPa SSO 6.2mph /  10km/h 9mph /  14.5km/h 27.4% 0in /  0.0mm
19:09 95.2 °F /  35.1 °C 56.3 °F /  13.5 °C 29.7in /  1004.9hPa Este 4.2mph /  6.7km/h 9.2mph /  14.8km/h 27.5% 0in /  0.0mm
19:14 94.8 °F /  34.9 °C 55.9 °F /  13.3 °C 29.7in /  1004.9hPa NE 2.9mph /  4.7km/h 8.1mph /  13km/h 27.3% 0in /  0.0mm
19:19 94.6 °F /  34.8 °C 54.5 °F /  12.5 °C 29.7in /  1004.9hPa NNE 4mph /  6.5km/h 8.5mph /  13.7km/h 26.1% 0in /  0.0mm
19:24 94.6 °F /  34.8 °C 54.5 °F /  12.5 °C 29.7in /  1005.0hPa North 4.7mph /  7.6km/h 9mph /  14.5km/h 26.1% 0in /  0.0mm
19:29 94.6 °F /  34.8 °C 54.5 °F /  12.5 °C 29.7in /  1005.0hPa North 4.5mph /  7.2km/h 7mph /  11.3km/h 26.1% 0in /  0.0mm
19:34 94.6 °F /  34.8 °C 54.5 °F /  12.5 °C 29.7in /  1005.0hPa North 4.3mph /  6.9km/h 8.1mph /  13km/h 26% 0in /  0.0mm
19:39 94.6 °F /  34.8 °C 56.5 °F /  13.6 °C 29.7in /  1005.2hPa North 4.3mph /  6.9km/h 11.5mph /  18.5km/h 28% 0in /  0.0mm
19:44 94.5 °F /  34.7 °C 59.2 °F /  15.1 °C 29.7in /  1005.2hPa NNO 4.3mph /  6.9km/h 10.4mph /  16.7km/h 31.1% 0in /  0.0mm
19:49 93.9 °F /  34.4 °C 61.5 °F /  16.4 °C 29.7in /  1005.2hPa North 5.5mph /  8.9km/h 16.3mph /  26.2km/h 34.2% 0in /  0.0mm
19:54 93.2 °F /  34 °C 63.3 °F /  17.4 °C 29.7in /  1005.6hPa North 6.2mph /  10km/h 16.3mph /  26.2km/h 37.3% 0in /  0.0mm
19:59 92.3 °F /  33.5 °C 63.3 °F /  17.4 °C 29.7in /  1005.6hPa North 7.4mph /  11.9km/h 16mph /  25.7km/h 38.4% 0in /  0.0mm
20:04 91.9 °F /  33.3 °C 61.2 °F /  16.2 °C 29.7in /  1005.6hPa NNE 8.1mph /  13km/h 15mph /  24.1km/h 36% 0in /  0.0mm
20:09 92.1 °F /  33.4 °C 57.4 °F /  14.1 °C 29.7in /  1005.6hPa North 6.9mph /  11.1km/h 11.5mph /  18.5km/h 31.2% 0in /  0.0mm
20:14 92.7 °F /  33.7 °C 57.9 °F /  14.4 °C 29.7in /  1005.6hPa NNE 6.2mph /  10km/h 12mph /  19.3km/h 31.4% 0in /  0.0mm
20:19 92.8 °F /  33.8 °C 57.7 °F /  14.3 °C 29.7in /  1005.6hPa NO 6mph /  9.7km/h 10.4mph /  16.7km/h 31.1% 0in /  0.0mm
20:24 92.8 °F /  33.8 °C 57.7 °F /  14.3 °C 29.7in /  1005.9hPa ONO 5.9mph /  9.5km/h 10.7mph /  17.2km/h 30.9% 0in /  0.0mm
20:29 92.8 °F /  33.8 °C 55.6 °F /  13.1 °C 29.7in /  1005.9hPa NO 6.1mph /  9.8km/h 15.2mph /  24.5km/h 28.6% 0in /  0.0mm
20:34 93 °F /  33.9 °C 48.7 °F /  9.3 °C 29.7in /  1005.9hPa ONO 6.2mph /  10km/h 15mph /  24.1km/h 22.1% 0in /  0.0mm
20:39 93.4 °F /  34.1 °C 46.4 °F /  8 °C 29.7in /  1006.0hPa ONO 8mph /  12.8km/h 18.4mph /  29.6km/h 20.1% 0in /  0.0mm
20:44 93.2 °F /  34 °C 46.8 °F /  8.2 °C 29.7in /  1006.0hPa ONO 9.2mph /  14.8km/h 18mph /  29km/h 20.5% 0in /  0.0mm
20:49 93 °F /  33.9 °C 47.3 °F /  8.5 °C 29.7in /  1006.0hPa ONO 9.2mph /  14.8km/h 16.1mph /  25.9km/h 21% 0in /  0.0mm
20:54 92.8 °F /  33.8 °C 48.2 °F /  9 °C 29.7in /  1006.2hPa ONO 9.2mph /  14.8km/h 18.4mph /  29.6km/h 21.9% 0in /  0.0mm
20:59 92.8 °F /  33.8 °C 48.4 °F /  9.1 °C 29.7in /  1006.2hPa ONO 9.7mph /  15.6km/h 18.4mph /  29.6km/h 22% 0in /  0.0mm
21:04 92.7 °F /  33.7 °C 48.2 °F /  9 °C 29.7in /  1006.2hPa Oeste 10mph /  16.1km/h 15mph /  24.1km/h 22% 0in /  0.0mm
21:09 92.3 °F /  33.5 °C 48 °F /  8.9 °C 29.7in /  1006.3hPa ONO 8.3mph /  13.4km/h 13mph /  20.9km/h 22% 0in /  0.0mm
21:14 91.9 °F /  33.3 °C 48.2 °F /  9 °C 29.7in /  1006.3hPa ONO 7.4mph /  11.9km/h 15.9mph /  25.6km/h 22.5% 0in /  0.0mm
21:19 91.9 °F /  33.3 °C 48.7 °F /  9.3 °C 29.7in /  1006.3hPa Oeste 7.5mph /  12.1km/h 16.1mph /  25.9km/h 23% 0in /  0.0mm
21:24 91.8 °F /  33.2 °C 48.6 °F /  9.2 °C 29.7in /  1006.5hPa Oeste 7.6mph /  12.2km/h 16mph /  25.7km/h 23% 0in /  0.0mm
21:29 91.6 °F /  33.1 °C 48.6 °F /  9.2 °C 29.7in /  1006.5hPa Oeste 7.9mph /  12.7km/h 16.1mph /  25.9km/h 23% 0in /  0.0mm
21:34 91.2 °F /  32.9 °C 48.4 °F /  9.1 °C 29.7in /  1006.5hPa Oeste 8.1mph /  13km/h 19.7mph /  31.7km/h 23% 0in /  0.0mm
21:39 91.2 °F /  32.9 °C 48.2 °F /  9 °C 29.7in /  1006.8hPa Oeste 9.1mph /  14.7km/h 20mph /  32.2km/h 23% 0in /  0.0mm
21:44 91 °F /  32.8 °C 48 °F /  8.9 °C 29.7in /  1006.8hPa Oeste 9.7mph /  15.6km/h 18mph /  29km/h 23% 0in /  0.0mm
21:49 90.9 °F /  32.7 °C 48 °F /  8.9 °C 29.7in /  1006.8hPa Oeste 8.8mph /  14.1km/h 16mph /  25.7km/h 23% 0in /  0.0mm
21:54 90.7 °F /  32.6 °C 47.8 °F /  8.8 °C 29.7in /  1007.2hPa ONO 8.1mph /  13km/h 14mph /  22.5km/h 23% 0in /  0.0mm
21:59 90.5 °F /  32.5 °C 48.4 °F /  9.1 °C 29.7in /  1007.2hPa NO 6.8mph /  11km/h 12mph /  19.3km/h 23.7% 0in /  0.0mm
22:04 90.1 °F /  32.3 °C 47.1 °F /  8.4 °C 29.7in /  1007.2hPa ONO 6.2mph /  10km/h 15.2mph /  24.5km/h 22.8% 0in /  0.0mm
22:09 90.1 °F /  32.3 °C 45.3 °F /  7.4 °C 29.8in /  1007.5hPa ONO 7.1mph /  11.4km/h 18.5mph /  29.8km/h 21.3% 0in /  0.0mm
22:14 90 °F /  32.2 °C 44.4 °F /  6.9 °C 29.8in /  1007.5hPa ONO 7.6mph /  12.2km/h 19mph /  30.6km/h 20.6% 0in /  0.0mm
22:19 90 °F /  32.2 °C 42.8 °F /  6 °C 29.8in /  1007.5hPa ONO 8.3mph /  13.3km/h 20.8mph /  33.5km/h 19.4% 0in /  0.0mm
22:24 90 °F /  32.2 °C 42.3 °F /  5.7 °C 29.8in /  1007.7hPa ONO 8.7mph /  14km/h 19.7mph /  31.7km/h 19% 0in /  0.0mm
22:29 90 °F /  32.2 °C 42.1 °F /  5.6 °C 29.8in /  1007.7hPa ONO 9.9mph /  16km/h 20.7mph /  33.3km/h 19% 0in /  0.0mm
22:34 89.8 °F /  32.1 °C 42.1 °F /  5.6 °C 29.8in /  1007.7hPa ONO 10.7mph /  17.2km/h 21.3mph /  34.3km/h 19% 0in /  0.0mm
22:39 89.6 °F /  32 °C 41.9 °F /  5.5 °C 29.8in /  1008.0hPa ONO 11.4mph /  18.4km/h 21mph /  33.8km/h 19% 0in /  0.0mm
22:44 89.4 °F /  31.9 °C 41.7 °F /  5.4 °C 29.8in /  1008.0hPa ONO 11.8mph /  19km/h 21mph /  33.8km/h 19% 0in /  0.0mm
22:49 89.2 °F /  31.8 °C 41.7 °F /  5.4 °C 29.8in /  1008.0hPa ONO 12.6mph /  20.3km/h 23mph /  37km/h 19% 0in /  0.0mm
22:54 89.1 °F /  31.7 °C 41.5 °F /  5.3 °C 29.8in /  1008.3hPa ONO 13mph /  20.9km/h 23mph /  37km/h 19% 0in /  0.0mm
22:59 88.9 °F /  31.6 °C 41.4 °F /  5.2 °C 29.8in /  1008.3hPa ONO 12mph /  19.3km/h 19mph /  30.6km/h 19% 0in /  0.0mm
23:04 88.7 °F /  31.5 °C 41 °F /  5 °C 29.8in /  1008.3hPa ONO 11.4mph /  18.4km/h 20.8mph /  33.5km/h 19% 0in /  0.0mm
23:09 88.5 °F /  31.4 °C 41 °F /  5 °C 29.8in /  1008.6hPa ONO 11.4mph /  18.3km/h 18.5mph /  29.8km/h 19% 0in /  0.0mm
23:14 88.3 °F /  31.3 °C 41.7 °F /  5.4 °C 29.8in /  1008.6hPa ONO 11.4mph /  18.4km/h 23.5mph /  37.8km/h 19.7% 0in /  0.0mm
23:19 88.2 °F /  31.2 °C 42.1 °F /  5.6 °C 29.8in /  1008.6hPa NO 11.3mph /  18.2km/h 17.3mph /  27.8km/h 20% 0in /  0.0mm
23:24 88 °F /  31.1 °C 41.9 °F /  5.5 °C 29.8in /  1008.8hPa ONO 11.2mph /  18km/h 17mph /  27.4km/h 20% 0in /  0.0mm
23:29 87.8 °F /  31 °C 41.7 °F /  5.4 °C 29.8in /  1008.8hPa ONO 10.3mph /  16.6km/h 16.1mph /  25.9km/h 20% 0in /  0.0mm
23:34 87.6 °F /  30.9 °C 42.6 °F /  5.9 °C 29.8in /  1008.8hPa ONO 9.7mph /  15.6km/h 16mph /  25.7km/h 20.8% 0in /  0.0mm
23:39 87.3 °F /  30.7 °C 42.6 °F /  5.9 °C 29.8in /  1009.1hPa ONO 7.4mph /  11.9km/h 13mph /  20.9km/h 21% 0in /  0.0mm
23:44 86.9 °F /  30.5 °C 42.3 °F /  5.7 °C 29.8in /  1009.1hPa ONO 6.2mph /  10km/h 11.4mph /  18.3km/h 21% 0in /  0.0mm
23:49 86.5 °F /  30.3 °C 42.8 °F /  6 °C 29.8in /  1009.1hPa ONO 6.3mph /  10.2km/h 12mph /  19.3km/h 21.6% 0in /  0.0mm
23:54 86.4 °F /  30.2 °C 43 °F /  6.1 °C 29.8in /  1009.2hPa ONO 6.4mph /  10.3km/h 12mph /  19.3km/h 22% 0in /  0.0mm
23:59 86.2 °F /  30.1 °C 43 °F /  6.1 °C 29.8in /  1009.2hPa ONO 6.7mph /  10.8km/h 11.5mph /  18.5km/h 22% 0in /  0.0mm
Murcia-Puente Tocinos, España
Compliments of Weather Underground - 3 mb

La estación de MeteoMurcia.com, publica sus datos en los siguientes proyectos:

Weather Underground PWS IMURCIAP2 Meteoclimatic www.awekas.at

W3Counter
Web Analytics